Portada
METAR-TAF:

METAR-TAF

Aeroports :

Taiyuan, Xina

latitud: 37-47N, longitud: 112-33E, altitud: 779 m

Observació

L'informe es va fer fa 24 minuts, a les 15:00 UTC
Vent 12 kt del Est amb ràfegues de 25 kt, variant entre Nord-Est i Est
Temperatura 23°C
Humitat 33%
Pressió 1007 hPa
Visibilitat 10 km o més
sense núvols per sota de 1500 mi sense presència de cumulonimbus.

METAR: ZBYN 041500Z 08006G13MPS 040V100 CAVOK 23/06 Q1007 NOSIG

Hora: 23:24 (15:24 UTC)

Pronòstic

L'informe es va fer fa 6 hores i 13 minuts, a les 09:11 UTC
Pronòstic vàlid del 04 a les 12 UTC al 05 a les 12 UTC
Vent 8 kt del Est
Visibilitat: 6000 m

TAF: ZBYN 040911Z 0412/0512 09004MPS 6000 NSC TX34/0507Z TN13/0421Z

Observacions i pronòstics meteorològics de més de 4000 aeroports (METAR i TAF).

Les estacions disponibles són els punts grocs i vermells al mapa.

Posi el ratolí al punt desitjat per veure el nom de l'estació.

Feu clic per veure les observacions i els pronòstics meteorològics.

Per canviar el mapa: feu clic els botons verds amb una creu de color negre per apropar; al botó verd amb un guió per allunyar la imatge; o en les fletxes verdes per a mapes adjacents.


METAR-TAF: